createdAt,value
2019-04-05T00:00:15.198Z,11.90
2019-04-05T00:01:15.195Z,11.80
2019-04-05T00:02:15.168Z,16.90
2019-04-05T00:03:15.187Z,17.00
2019-04-05T00:04:15.143Z,12.50
2019-04-05T00:05:15.140Z,12.10
2019-04-05T00:06:15.127Z,14.70
2019-04-05T00:07:15.119Z,12.10
2019-04-05T00:08:15.102Z,14.00
2019-04-05T00:09:15.108Z,11.40
2019-04-05T00:10:15.074Z,14.60
2019-04-05T00:11:15.061Z,11.70
2019-04-05T00:12:15.057Z,15.60
2019-04-05T00:13:15.048Z,13.80
2019-04-05T00:14:15.103Z,13.40
2019-04-05T00:15:16.166Z,12.90
2019-04-05T00:16:15.005Z,14.50
2019-04-05T00:17:15.020Z,15.30
2019-04-05T00:18:15.008Z,15.20
2019-04-05T00:19:14.986Z,11.90
2019-04-05T00:20:14.999Z,14.40
2019-04-05T00:21:14.953Z,14.70
2019-04-05T00:22:14.943Z,13.50
2019-04-05T00:23:14.927Z,13.80
2019-04-05T00:24:14.918Z,15.60
2019-04-05T00:25:14.936Z,14.20
2019-04-05T00:26:14.939Z,17.10
2019-04-05T00:27:14.907Z,12.80
2019-04-05T00:28:14.878Z,15.30
2019-04-05T00:29:14.863Z,13.40
2019-04-05T00:30:14.873Z,14.90
2019-04-05T00:31:14.846Z,16.90
2019-04-05T00:32:14.833Z,11.40
2019-04-05T00:33:14.819Z,17.20
2019-04-05T00:34:14.805Z,12.80
2019-04-05T00:35:14.821Z,12.00
2019-04-05T00:36:14.799Z,11.00
2019-04-05T00:37:14.831Z,17.60
2019-04-05T00:38:14.780Z,15.20
2019-04-05T00:39:14.759Z,13.30
2019-04-05T00:40:14.772Z,14.80
2019-04-05T00:41:14.729Z,10.90
2019-04-05T00:42:14.753Z,13.00
2019-04-05T00:43:14.712Z,13.20
2019-04-05T00:44:14.699Z,10.90
2019-04-05T00:45:27.172Z,15.30
2019-04-05T00:46:15.687Z,14.30
2019-04-05T00:47:14.661Z,12.30
2019-04-05T00:48:14.667Z,12.40
2019-04-05T00:49:14.661Z,12.30
2019-04-05T00:50:14.644Z,13.90
2019-04-05T00:51:14.626Z,15.30
2019-04-05T00:52:14.608Z,14.20
2019-04-05T00:53:15.130Z,11.70
2019-04-05T00:54:14.585Z,18.10
2019-04-05T00:55:14.575Z,12.00
2019-04-05T00:56:14.569Z,16.90
2019-04-05T00:57:14.577Z,16.10
2019-04-05T00:58:14.568Z,13.90
2019-04-05T00:59:14.546Z,11.70
2019-04-05T01:00:14.538Z,16.00
2019-04-05T01:01:14.512Z,17.50
2019-04-05T01:02:14.494Z,12.40
2019-04-05T01:03:14.520Z,12.10
2019-04-05T01:04:14.482Z,19.70
2019-04-05T01:05:14.462Z,13.80
2019-04-05T01:06:14.457Z,13.80
2019-04-05T01:07:14.456Z,12.40
2019-04-05T01:08:14.427Z,14.90
2019-04-05T01:09:14.445Z,17.30
2019-04-05T01:10:14.411Z,16.70
2019-04-05T01:11:14.405Z,15.60
2019-04-05T01:12:14.390Z,15.10
2019-04-05T01:13:14.397Z,12.50
2019-04-05T01:14:14.375Z,10.90
2019-04-05T01:15:14.358Z,11.40
2019-04-05T01:16:14.360Z,13.50
2019-04-05T01:17:24.429Z,13.20
2019-04-05T01:18:15.335Z,12.60
2019-04-05T01:19:14.328Z,14.20
2019-04-05T01:20:14.286Z,13.00
2019-04-05T01:21:14.307Z,14.00
2019-04-05T01:22:14.283Z,12.00
2019-04-05T01:23:14.272Z,14.80
2019-04-05T01:24:14.262Z,13.90
2019-04-05T01:25:14.260Z,13.40
2019-04-05T01:26:14.244Z,14.60
2019-04-05T01:27:14.215Z,13.60
2019-04-05T01:28:14.210Z,16.10
2019-04-05T01:29:14.219Z,12.70
2019-04-05T01:30:14.226Z,16.70
2019-04-05T01:31:14.186Z,13.00
2019-04-05T01:32:14.175Z,15.00
2019-04-05T01:33:14.156Z,12.60
2019-04-05T01:34:14.140Z,15.90
2019-04-05T01:35:14.168Z,16.20
2019-04-05T01:36:14.185Z,15.30
2019-04-05T01:37:14.111Z,14.30
2019-04-05T01:38:14.096Z,17.10
2019-04-05T01:39:14.078Z,14.90
2019-04-05T01:40:14.109Z,16.20
2019-04-05T01:41:14.092Z,19.10
2019-04-05T01:42:14.061Z,12.40
2019-04-05T01:43:14.046Z,15.20
2019-04-05T01:44:14.045Z,15.50
2019-04-05T01:45:14.023Z,14.60
2019-04-05T01:46:14.051Z,15.30
2019-04-05T01:47:13.999Z,15.20
2019-04-05T01:48:13.987Z,16.70
2019-04-05T01:49:14.009Z,16.30
2019-04-05T01:50:13.976Z,18.40
2019-04-05T01:51:13.976Z,15.70
2019-04-05T01:52:13.948Z,14.60
2019-04-05T01:53:13.938Z,14.40
2019-04-05T01:54:13.936Z,16.60
2019-04-05T01:55:13.918Z,15.40
2019-04-05T01:56:13.928Z,17.70
2019-04-05T01:57:13.884Z,15.30
2019-04-05T01:58:13.879Z,17.60
2019-04-05T01:59:13.874Z,15.10
2019-04-05T02:00:13.858Z,15.30
2019-04-05T02:01:13.870Z,14.90
2019-04-05T02:02:13.846Z,14.10
2019-04-05T02:03:13.830Z,15.50
2019-04-05T02:04:13.830Z,20.80
2019-04-05T02:05:13.796Z,14.30
2019-04-05T02:06:13.817Z,16.90
2019-04-05T02:07:13.780Z,15.90
2019-04-05T02:08:13.789Z,16.00
2019-04-05T02:09:13.755Z,12.90
2019-04-05T02:10:13.736Z,15.20
2019-04-05T02:11:13.739Z,15.10
2019-04-05T02:12:13.722Z,16.60
2019-04-05T02:13:13.746Z,14.50
2019-04-05T02:14:13.713Z,14.70
2019-04-05T02:15:13.697Z,14.40
2019-04-05T02:16:13.688Z,17.80
2019-04-05T02:17:13.664Z,15.30
2019-04-05T02:18:13.674Z,19.80
2019-04-05T02:19:13.640Z,15.00
2019-04-05T02:20:13.640Z,13.20
2019-04-05T02:21:13.629Z,16.90
2019-04-05T02:22:13.625Z,18.00
2019-04-05T02:23:13.619Z,13.50
2019-04-05T02:24:13.598Z,14.00
2019-04-05T02:25:13.589Z,17.80
2019-04-05T02:26:13.587Z,14.40
2019-04-05T02:27:13.570Z,18.30
2019-04-05T02:28:13.586Z,18.30
2019-04-05T02:29:13.550Z,16.70
2019-04-05T02:30:13.526Z,17.50
2019-04-05T02:31:13.529Z,14.10
2019-04-05T02:32:13.501Z,16.50
2019-04-05T02:33:13.501Z,16.70
2019-04-05T02:34:13.498Z,14.30
2019-04-05T02:35:13.509Z,15.60
2019-04-05T02:36:13.468Z,19.20
2019-04-05T02:37:13.455Z,17.10
2019-04-05T02:38:13.457Z,15.50
2019-04-05T02:39:13.451Z,14.10
2019-04-05T02:40:13.426Z,15.30
2019-04-05T02:41:13.407Z,18.40
2019-04-05T02:42:13.393Z,19.20
2019-04-05T02:43:13.375Z,15.30
2019-04-05T02:44:13.391Z,14.20
2019-04-05T02:45:13.380Z,17.90
2019-04-05T02:46:23.484Z,17.00
2019-04-05T02:47:14.343Z,17.60
2019-04-05T02:48:13.334Z,16.90
2019-04-05T02:49:13.309Z,14.30
2019-04-05T02:50:13.320Z,18.10
2019-04-05T02:51:13.284Z,16.00
2019-04-05T02:52:13.285Z,15.40
2019-04-05T02:53:13.292Z,14.50
2019-04-05T02:54:13.266Z,16.40
2019-04-05T02:55:13.257Z,18.50
2019-04-05T02:56:13.220Z,17.10
2019-04-05T02:57:13.222Z,14.00
2019-04-05T02:58:13.218Z,18.60
2019-04-05T02:59:13.197Z,19.20
2019-04-05T03:00:13.235Z,15.00
2019-04-05T03:01:13.221Z,14.30
2019-04-05T03:02:13.158Z,13.90
2019-04-05T03:03:13.152Z,14.30
2019-04-05T03:04:13.136Z,14.60
2019-04-05T03:05:13.137Z,18.10
2019-04-05T03:06:13.144Z,16.00
2019-04-05T03:07:13.113Z,16.20
2019-04-05T03:08:13.100Z,16.90
2019-04-05T03:09:13.087Z,16.80
2019-04-05T03:10:13.068Z,19.80
2019-04-05T03:11:13.103Z,19.80
2019-04-05T03:12:13.051Z,13.80
2019-04-05T03:13:13.048Z,19.30
2019-04-05T03:14:13.041Z,17.00
2019-04-05T03:15:13.008Z,18.20
2019-04-05T03:16:13.023Z,18.60
2019-04-05T03:17:13.014Z,17.40
2019-04-05T03:18:12.985Z,18.40
2019-04-05T03:19:12.977Z,16.70
2019-04-05T03:20:12.976Z,18.30
2019-04-05T03:21:12.981Z,16.40
2019-04-05T03:22:12.946Z,18.70
2019-04-05T03:23:12.939Z,15.50
2019-04-05T03:24:12.955Z,17.10
2019-04-05T03:25:12.917Z,15.70
2019-04-05T03:26:12.921Z,14.60
2019-04-05T03:27:12.914Z,16.60
2019-04-05T03:28:12.873Z,18.20
2019-04-05T03:29:12.866Z,16.90
2019-04-05T03:30:12.857Z,20.20
2019-04-05T03:31:12.874Z,14.30
2019-04-05T03:32:12.874Z,18.10
2019-04-05T03:33:12.815Z,15.00
2019-04-05T03:34:12.871Z,18.80
2019-04-05T03:35:12.826Z,16.00
2019-04-05T03:36:12.811Z,18.40
2019-04-05T03:37:12.798Z,17.00
2019-04-05T03:38:12.798Z,19.30
2019-04-05T03:39:12.751Z,17.60
2019-04-05T03:40:12.751Z,19.70
2019-04-05T03:41:12.723Z,15.60
2019-04-05T03:42:12.719Z,15.60
2019-04-05T03:43:12.720Z,19.00
2019-04-05T03:44:12.718Z,16.80
2019-04-05T03:45:12.679Z,16.10
2019-04-05T03:46:12.668Z,22.10
2019-04-05T03:47:12.659Z,17.60
2019-04-05T03:48:12.649Z,15.60
2019-04-05T03:49:12.670Z,14.70
2019-04-05T03:50:12.660Z,18.10
2019-04-05T03:51:12.631Z,18.20
2019-04-05T03:52:12.615Z,21.40
2019-04-05T03:53:12.595Z,18.10
2019-04-05T03:54:12.597Z,19.00
2019-04-05T03:55:12.591Z,14.40
2019-04-05T03:56:12.574Z,14.50
2019-04-05T03:57:12.564Z,17.80
2019-04-05T03:58:12.546Z,17.70
2019-04-05T03:59:12.560Z,15.20
2019-04-05T04:00:12.514Z,17.80
2019-04-05T04:01:12.526Z,21.40
2019-04-05T04:02:12.502Z,17.80
2019-04-05T04:03:12.488Z,16.50
2019-04-05T04:04:12.507Z,15.90
2019-04-05T04:05:12.463Z,16.60
2019-04-05T04:06:12.473Z,17.80
2019-04-05T04:07:12.444Z,15.80
2019-04-05T04:08:12.437Z,15.00
2019-04-05T04:09:12.430Z,15.40
2019-04-05T04:10:12.446Z,17.90
2019-04-05T04:11:12.399Z,18.10
2019-04-05T04:12:12.408Z,17.00
2019-04-05T04:13:12.394Z,15.20
2019-04-05T04:14:12.377Z,13.70
2019-04-05T04:15:14.077Z,19.80
2019-04-05T04:16:12.367Z,19.40
2019-04-05T04:17:13.552Z,14.80
2019-04-05T04:18:12.311Z,15.90
2019-04-05T04:19:12.311Z,17.80
2019-04-05T04:20:12.295Z,17.90
2019-04-05T04:21:12.325Z,16.00
2019-04-05T04:22:12.292Z,19.50
2019-04-05T04:23:12.292Z,15.80
2019-04-05T04:24:12.261Z,20.20
2019-04-05T04:25:12.240Z,18.10
2019-04-05T04:26:12.231Z,23.70
2019-04-05T04:27:12.246Z,17.30
2019-04-05T04:28:12.212Z,18.70
2019-04-05T04:29:12.203Z,21.40
2019-04-05T04:30:12.200Z,16.70
2019-04-05T04:31:12.164Z,18.70
2019-04-05T04:32:12.216Z,15.60
2019-04-05T04:33:12.158Z,16.00
2019-04-05T04:34:12.146Z,18.90
2019-04-05T04:35:12.163Z,20.70
2019-04-05T04:36:13.259Z,17.50
2019-04-05T04:37:12.123Z,18.20
2019-04-05T04:38:12.095Z,15.30
2019-04-05T04:39:12.086Z,18.60
2019-04-05T04:40:12.077Z,19.30
2019-04-05T04:41:12.077Z,19.20
2019-04-05T04:42:12.107Z,23.50
2019-04-05T04:43:12.050Z,14.90
2019-04-05T04:44:12.039Z,19.20
2019-04-05T04:45:12.976Z,17.70
2019-04-05T04:46:12.003Z,16.20
2019-04-05T04:47:25.122Z,16.90
2019-04-05T04:48:13.012Z,18.10
2019-04-05T04:49:11.978Z,15.40
2019-04-05T04:50:11.973Z,18.10
2019-04-05T04:51:11.959Z,20.80
2019-04-05T04:52:11.939Z,17.30
2019-04-05T04:53:11.969Z,17.60
2019-04-05T04:54:11.926Z,15.10
2019-04-05T04:55:11.926Z,20.70
2019-04-05T04:56:11.906Z,15.20
2019-04-05T04:57:11.883Z,20.70
2019-04-05T04:58:11.897Z,21.20
2019-04-05T04:59:11.869Z,19.40
2019-04-05T05:00:11.848Z,16.70
2019-04-05T05:01:11.855Z,20.00
2019-04-05T05:02:11.837Z,15.20
2019-04-05T05:03:11.905Z,17.90
2019-04-05T05:04:11.813Z,15.50
2019-04-05T05:05:11.807Z,16.40
2019-04-05T05:06:11.797Z,18.10
2019-04-05T05:07:11.780Z,16.30
2019-04-05T05:08:11.795Z,16.20
2019-04-05T05:09:11.768Z,17.70
2019-04-05T05:10:11.738Z,15.60
2019-04-05T05:11:14.740Z,17.40
2019-04-05T05:12:11.717Z,17.70
2019-04-05T05:13:11.716Z,19.40
2019-04-05T05:14:11.773Z,20.20
2019-04-05T05:15:11.698Z,17.40
2019-04-05T05:16:11.686Z,21.20
2019-04-05T05:17:11.671Z,18.20
2019-04-05T05:18:11.682Z,16.60
2019-04-05T05:19:11.660Z,18.90
2019-04-05T05:20:11.665Z,19.00
2019-04-05T05:21:11.642Z,16.20
2019-04-05T05:22:11.609Z,17.80
2019-04-05T05:23:11.603Z,16.80
2019-04-05T05:24:11.621Z,18.70
2019-04-05T05:25:11.624Z,25.90
2019-04-05T05:26:11.774Z,20.30
2019-04-05T05:27:11.572Z,16.90
2019-04-05T05:28:11.552Z,21.60
2019-04-05T05:29:12.175Z,16.40
2019-04-05T05:30:11.523Z,22.80
2019-04-05T05:31:11.546Z,19.50
2019-04-05T05:32:11.516Z,21.40
2019-04-05T05:33:11.602Z,20.00
2019-04-05T05:34:11.487Z,19.30
2019-04-05T05:35:11.507Z,17.90
2019-04-05T05:36:11.605Z,22.50
2019-04-05T05:37:11.475Z,22.50
2019-04-05T05:38:11.445Z,20.30
2019-04-05T05:39:11.440Z,18.40
2019-04-05T05:40:11.422Z,21.50
2019-04-05T05:41:11.436Z,19.30
2019-04-05T05:42:11.391Z,20.10
2019-04-05T05:43:11.385Z,20.10
2019-04-05T05:44:11.371Z,23.00
2019-04-05T05:45:11.359Z,15.50
2019-04-05T05:46:11.365Z,22.00
2019-04-05T05:47:11.347Z,20.70
2019-04-05T05:48:11.325Z,22.90
2019-04-05T05:49:11.312Z,18.80
2019-04-05T05:50:11.298Z,19.10
2019-04-05T05:51:11.322Z,21.60
2019-04-05T05:52:11.294Z,20.20
2019-04-05T05:53:11.273Z,22.30
2019-04-05T05:54:11.257Z,22.20
2019-04-05T05:55:11.242Z,18.80
2019-04-05T05:56:11.231Z,20.90
2019-04-05T05:57:11.259Z,20.00
2019-04-05T05:58:11.217Z,23.60
2019-04-05T05:59:11.228Z,21.20
2019-04-05T06:00:11.200Z,20.70
2019-04-05T06:01:13.686Z,25.40
2019-04-05T06:02:11.181Z,21.40
2019-04-05T06:03:11.978Z,21.50
2019-04-05T06:04:12.754Z,23.20
2019-04-05T06:05:11.143Z,22.60
2019-04-05T06:06:11.138Z,24.00
2019-04-05T06:07:11.161Z,22.90
2019-04-05T06:08:11.103Z,20.80
2019-04-05T06:09:11.094Z,25.90
2019-04-05T06:10:11.094Z,23.00
2019-04-05T06:11:11.077Z,23.20
2019-04-05T06:12:11.079Z,24.90
2019-04-05T06:13:11.121Z,24.10
2019-04-05T06:14:11.055Z,22.30
2019-04-05T06:15:11.034Z,22.10
2019-04-05T06:16:11.018Z,22.30
2019-04-05T06:17:11.017Z,20.30
2019-04-05T06:18:12.713Z,21.10
2019-04-05T06:19:10.991Z,22.60
2019-04-05T06:20:10.992Z,22.40
2019-04-05T06:21:10.961Z,28.20
2019-04-05T06:22:10.960Z,22.80
2019-04-05T06:23:10.974Z,22.90
2019-04-05T06:24:10.930Z,20.70
2019-04-05T06:25:10.948Z,28.10
2019-04-05T06:26:10.927Z,29.50
2019-04-05T06:27:10.899Z,25.70
2019-04-05T06:28:10.905Z,24.10
2019-04-05T06:29:10.904Z,21.50
2019-04-05T06:30:10.887Z,25.70
2019-04-05T06:31:10.874Z,26.80
2019-04-05T06:32:10.854Z,29.10
2019-04-05T06:33:10.832Z,22.20
2019-04-05T06:34:10.852Z,26.60
2019-04-05T06:35:10.799Z,27.10
2019-04-05T06:36:10.796Z,26.40
2019-04-05T06:37:10.796Z,23.00
2019-04-05T06:38:10.780Z,22.50
2019-04-05T06:39:10.769Z,31.10
2019-04-05T06:40:10.762Z,25.00
2019-04-05T06:41:10.759Z,22.80
2019-04-05T06:42:10.737Z,25.00
2019-04-05T06:43:10.744Z,25.70
2019-04-05T06:44:10.720Z,26.60
2019-04-05T06:45:10.742Z,29.10
2019-04-05T06:46:10.681Z,27.80
2019-04-05T06:47:10.673Z,27.90
2019-04-05T06:48:19.061Z,28.40
2019-04-05T06:49:11.663Z,25.90
2019-04-05T06:50:10.701Z,30.20
2019-04-05T06:51:10.625Z,32.30
2019-04-05T06:52:10.623Z,32.30
2019-04-05T06:53:10.612Z,34.20
2019-04-05T06:54:10.601Z,30.20
2019-04-05T06:55:10.623Z,32.60
2019-04-05T06:56:10.580Z,33.80
2019-04-05T06:57:10.589Z,34.10
2019-04-05T06:58:10.704Z,29.80
2019-04-05T06:59:10.557Z,36.00
2019-04-05T07:00:10.558Z,32.50
2019-04-05T07:01:10.528Z,33.00
2019-04-05T07:02:10.505Z,31.90
2019-04-05T07:03:13.452Z,31.70
2019-04-05T07:04:10.498Z,35.10
2019-04-05T07:05:10.467Z,32.70
2019-04-05T07:06:10.490Z,37.30
2019-04-05T07:07:10.450Z,37.80
2019-04-05T07:08:10.433Z,38.10
2019-04-05T07:09:10.457Z,36.90
2019-04-05T07:10:10.421Z,37.30
2019-04-05T07:11:10.399Z,40.50
2019-04-05T07:12:10.431Z,40.50
2019-04-05T07:13:10.394Z,39.20
2019-04-05T07:14:10.379Z,40.20
2019-04-05T07:15:10.374Z,39.90
2019-04-05T07:16:11.212Z,37.50
2019-04-05T07:17:10.350Z,41.50
2019-04-05T07:18:10.329Z,39.70
2019-04-05T07:19:10.330Z,39.30
2019-04-05T07:20:10.299Z,38.70
2019-04-05T07:21:10.300Z,41.40
2019-04-05T07:22:10.310Z,41.40
2019-04-05T07:23:10.276Z,42.40
2019-04-05T07:24:10.264Z,37.90
2019-04-05T07:25:10.246Z,43.90
2019-04-05T07:26:10.230Z,41.60
2019-04-05T07:27:10.236Z,42.00
2019-04-05T07:28:10.246Z,41.20
2019-04-05T07:29:10.215Z,41.80
2019-04-05T07:30:10.206Z,43.50
2019-04-05T07:31:10.187Z,44.20
2019-04-05T07:32:10.171Z,46.50
2019-04-05T07:33:10.204Z,45.70
2019-04-05T07:34:10.164Z,45.50
2019-04-05T07:35:10.171Z,47.80
2019-04-05T07:36:10.131Z,44.90
2019-04-05T07:37:10.118Z,45.30
2019-04-05T07:38:10.106Z,46.30
2019-04-05T07:39:10.124Z,49.60
2019-04-05T07:40:10.077Z,49.80
2019-04-05T07:41:10.091Z,46.60
2019-04-05T07:42:10.088Z,46.70
2019-04-05T07:43:10.051Z,43.60
2019-04-05T07:44:10.060Z,49.10
2019-04-05T07:45:10.044Z,47.20
2019-04-05T07:46:10.030Z,45.30
2019-04-05T07:47:10.021Z,51.20
2019-04-05T07:48:09.998Z,46.60
2019-04-05T07:49:10.043Z,47.90
2019-04-05T07:50:09.983Z,47.70
2019-04-05T07:51:09.960Z,45.90
2019-04-05T07:52:12.804Z,53.40
2019-04-05T07:53:09.958Z,48.70
2019-04-05T07:54:09.958Z,46.80
2019-04-05T07:55:09.931Z,46.40
2019-04-05T07:56:09.927Z,49.70
2019-04-05T07:57:09.886Z,48.50
2019-04-05T07:58:09.884Z,47.40
2019-04-05T07:59:09.884Z,47.80
2019-04-05T08:00:09.912Z,45.90
2019-04-05T08:01:09.844Z,47.10
2019-04-05T08:02:09.843Z,45.50
2019-04-05T08:03:09.824Z,42.20
2019-04-05T08:04:09.825Z,48.10
2019-04-05T08:05:09.825Z,51.40
2019-04-05T08:06:09.820Z,48.30
2019-04-05T08:07:09.811Z,51.70
2019-04-05T08:08:09.773Z,48.30
2019-04-05T08:09:09.763Z,47.60
2019-04-05T08:10:09.751Z,48.70
2019-04-05T08:11:09.733Z,52.20
2019-04-05T08:12:09.766Z,50.10
2019-04-05T08:13:09.723Z,46.40
2019-04-05T08:14:09.714Z,47.30
2019-04-05T08:15:09.733Z,49.10
2019-04-05T08:16:09.690Z,46.20
2019-04-05T08:17:09.705Z,48.20
2019-04-05T08:18:09.674Z,49.20
2019-04-05T08:19:09.660Z,50.80
2019-04-05T08:20:09.652Z,50.40
2019-04-05T08:21:09.622Z,51.60
2019-04-05T08:22:09.622Z,47.50
2019-04-05T08:23:09.632Z,45.40
2019-04-05T08:24:09.601Z,48.30
2019-04-05T08:25:09.594Z,54.20
2019-04-05T08:26:09.581Z,56.70
2019-04-05T08:27:09.572Z,46.10
2019-04-05T08:28:09.580Z,46.40
2019-04-05T08:29:09.543Z,46.90
2019-04-05T08:30:09.525Z,45.90
2019-04-05T08:31:10.745Z,44.00
2019-04-05T08:32:14.694Z,43.40
2019-04-05T08:33:10.509Z,43.80
2019-04-05T08:34:09.481Z,43.60
2019-04-05T08:35:09.479Z,45.60
2019-04-05T08:36:09.467Z,41.00
2019-04-05T08:37:09.485Z,42.40
2019-04-05T08:38:09.466Z,46.60
2019-04-05T08:39:09.445Z,44.60
2019-04-05T08:40:09.423Z,43.70
2019-04-05T08:41:09.442Z,44.60
2019-04-05T08:42:10.858Z,41.40
2019-04-05T08:43:09.385Z,44.10
2019-04-05T08:44:09.378Z,43.90
2019-04-05T08:45:09.374Z,44.60
2019-04-05T08:46:09.383Z,44.30
2019-04-05T08:47:09.353Z,49.80
2019-04-05T08:48:09.334Z,47.80
2019-04-05T08:49:11.530Z,45.60
2019-04-05T08:50:09.320Z,46.80
2019-04-05T08:51:09.308Z,47.20
2019-04-05T08:52:09.327Z,45.10
2019-04-05T08:53:09.274Z,40.90
2019-04-05T08:54:09.275Z,48.40
2019-04-05T08:55:09.252Z,42.30
2019-04-05T08:56:09.256Z,45.20
2019-04-05T08:57:09.236Z,44.30
2019-04-05T08:58:09.228Z,46.00
2019-04-05T08:59:09.223Z,47.90
2019-04-05T09:00:09.213Z,46.20
2019-04-05T09:01:09.187Z,49.70
2019-04-05T09:02:09.189Z,48.10
2019-04-05T09:03:11.806Z,49.80
2019-04-05T09:04:09.176Z,49.90
2019-04-05T09:05:09.135Z,49.10
2019-04-05T09:06:09.127Z,47.70
2019-04-05T09:07:09.140Z,52.60
2019-04-05T09:08:09.108Z,44.30
2019-04-05T09:09:09.110Z,48.20
2019-04-05T09:10:09.102Z,47.80
2019-04-05T09:11:09.086Z,51.30
2019-04-05T09:12:09.104Z,52.10
2019-04-05T09:13:09.063Z,49.50
2019-04-05T09:14:09.068Z,49.60
2019-04-05T09:15:09.029Z,44.80
2019-04-05T09:16:11.582Z,48.70
2019-04-05T09:17:09.030Z,52.90
2019-04-05T09:18:09.038Z,47.20
2019-04-05T09:19:08.991Z,49.00
2019-04-05T09:20:08.978Z,51.90
2019-04-05T09:21:10.232Z,54.80
2019-04-05T09:22:08.971Z,51.10
2019-04-05T09:23:08.977Z,56.70
2019-04-05T09:24:08.994Z,55.60
2019-04-05T09:25:08.923Z,49.80
2019-04-05T09:26:08.907Z,52.60
2019-04-05T09:27:08.917Z,55.20
2019-04-05T09:28:08.892Z,51.40
2019-04-05T09:29:09.466Z,54.80
2019-04-05T09:30:08.879Z,54.60
2019-04-05T09:31:08.873Z,54.60
2019-04-05T09:32:08.858Z,55.10
2019-04-05T09:33:08.840Z,55.70
2019-04-05T09:34:08.844Z,59.10
2019-04-05T09:35:08.822Z,56.30
2019-04-05T09:36:08.809Z,56.50
2019-04-05T09:37:08.826Z,53.70
2019-04-05T09:38:08.791Z,56.10
2019-04-05T09:39:12.665Z,58.60
2019-04-05T09:40:09.772Z,53.70
2019-04-05T09:41:08.758Z,56.80
2019-04-05T09:42:08.750Z,59.30
2019-04-05T09:43:08.741Z,52.60
2019-04-05T09:44:08.717Z,60.10
2019-04-05T09:45:08.724Z,60.80
2019-04-05T09:46:08.689Z,58.10
2019-04-05T09:47:08.695Z,59.40
2019-04-05T09:48:08.685Z,57.60
2019-04-05T09:49:08.670Z,62.20
2019-04-05T09:50:08.684Z,62.00
2019-04-05T09:51:08.636Z,58.20
2019-04-05T09:52:08.624Z,63.80
2019-04-05T09:53:08.630Z,64.90
2019-04-05T09:54:08.655Z,62.30
2019-04-05T09:55:08.645Z,60.90
2019-04-05T09:56:08.583Z,64.70
2019-04-05T09:57:08.583Z,60.10
2019-04-05T09:58:10.130Z,58.70
2019-04-05T09:59:08.545Z,63.80
2019-04-05T10:00:08.541Z,64.60
2019-04-05T10:01:08.565Z,64.30
2019-04-05T10:02:08.529Z,64.50
2019-04-05T10:03:08.522Z,62.70
2019-04-05T10:04:08.503Z,64.50
2019-04-05T10:05:08.494Z,67.20
2019-04-05T10:06:08.500Z,66.50
2019-04-05T10:07:08.470Z,65.10
2019-04-05T10:08:08.456Z,63.30
2019-04-05T10:09:08.466Z,61.70
2019-04-05T10:10:08.428Z,67.60
2019-04-05T10:11:08.417Z,67.50
2019-04-05T10:12:08.432Z,66.30
2019-04-05T10:13:09.919Z,69.60
2019-04-05T10:14:08.397Z,70.30
2019-04-05T10:15:08.382Z,66.00
2019-04-05T10:16:08.384Z,65.40
2019-04-05T10:17:08.378Z,73.60
2019-04-05T10:18:08.353Z,72.10
2019-04-05T10:19:08.327Z,73.00
2019-04-05T10:20:08.330Z,69.70
2019-04-05T10:21:08.317Z,76.10
2019-04-05T10:22:08.323Z,76.60
2019-04-05T10:23:08.288Z,72.60
2019-04-05T10:24:08.274Z,76.50
2019-04-05T10:25:08.281Z,74.10
2019-04-05T10:26:08.272Z,75.10
2019-04-05T10:27:08.285Z,74.60
2019-04-05T10:28:08.239Z,71.80
2019-04-05T10:29:08.233Z,74.40
2019-04-05T10:30:08.272Z,78.00
2019-04-05T10:31:08.200Z,76.80
2019-04-05T10:32:08.190Z,76.60
2019-04-05T10:33:08.203Z,81.90
2019-04-05T10:34:08.196Z,80.00
2019-04-05T10:35:08.172Z,84.00
2019-04-05T10:36:08.173Z,79.30
2019-04-05T10:37:08.127Z,71.00
2019-04-05T10:38:08.158Z,73.60
2019-04-05T10:39:08.135Z,71.80
2019-04-05T10:40:08.173Z,80.10
2019-04-05T10:41:08.108Z,79.60
2019-04-05T10:42:08.091Z,78.10
2019-04-05T10:43:08.094Z,76.10
2019-04-05T10:44:08.055Z,72.50
2019-04-05T10:45:08.053Z,75.60
2019-04-05T10:46:08.052Z,75.30
2019-04-05T10:47:08.032Z,66.00
2019-04-05T10:48:08.032Z,75.40
2019-04-05T10:49:08.047Z,70.20
2019-04-05T10:50:08.000Z,65.00
2019-04-05T10:51:07.979Z,75.70
2019-04-05T10:52:07.967Z,63.00
2019-04-05T10:53:07.992Z,64.20
2019-04-05T10:54:09.491Z,72.70
2019-04-05T10:55:07.930Z,70.30
2019-04-05T10:56:07.925Z,65.20
2019-04-05T10:57:07.919Z,73.10
2019-04-05T10:58:07.917Z,70.00
2019-04-05T10:59:07.948Z,69.20
2019-04-05T11:00:07.888Z,65.70
2019-04-05T11:01:07.861Z,66.90
2019-04-05T11:02:07.851Z,63.20
2019-04-05T11:03:07.846Z,64.70
2019-04-05T11:04:07.858Z,70.40
2019-04-05T11:05:07.831Z,64.90
2019-04-05T11:06:07.822Z,67.10
2019-04-05T11:07:07.808Z,66.50
2019-04-05T11:08:07.810Z,62.00
2019-04-05T11:09:07.855Z,64.20
2019-04-05T11:10:07.770Z,63.10
2019-04-05T11:11:07.774Z,62.00
2019-04-05T11:12:08.751Z,61.30
2019-04-05T11:13:07.730Z,61.10
2019-04-05T11:14:13.658Z,64.50
2019-04-05T11:15:08.722Z,55.10
2019-04-05T11:16:07.718Z,55.80
2019-04-05T11:17:07.694Z,54.10
2019-04-05T11:18:07.692Z,54.90
2019-04-05T11:19:07.673Z,53.40
2019-04-05T11:20:20.664Z,53.90
2019-04-05T11:21:08.646Z,52.20
2019-04-05T11:22:07.630Z,55.70
2019-04-05T11:23:07.625Z,46.90
2019-04-05T11:24:07.617Z,46.60
2019-04-05T11:25:07.635Z,47.80
2019-04-05T11:26:07.606Z,52.50
2019-04-05T11:27:07.581Z,50.40
2019-04-05T11:28:07.571Z,51.80
2019-04-05T11:29:07.565Z,54.30
2019-04-05T11:30:07.570Z,51.70
2019-04-05T11:31:07.548Z,47.50
2019-04-05T11:32:07.533Z,50.60
2019-04-05T11:33:07.514Z,47.30
2019-04-05T11:34:07.506Z,47.40
2019-04-05T11:35:07.531Z,42.80
2019-04-05T11:36:07.482Z,45.00
2019-04-05T11:37:07.476Z,48.30
2019-04-05T11:38:07.464Z,41.50
2019-04-05T11:39:07.459Z,42.80
2019-04-05T11:40:07.440Z,44.80
2019-04-05T11:41:07.457Z,44.90
2019-04-05T11:42:07.413Z,46.20
2019-04-05T11:43:07.414Z,45.40
2019-04-05T11:44:07.398Z,46.40
2019-04-05T11:45:07.379Z,43.50
2019-04-05T11:46:07.400Z,43.20
2019-04-05T11:47:07.367Z,46.50
2019-04-05T11:48:07.361Z,44.60
2019-04-05T11:49:07.345Z,42.70
2019-04-05T11:50:07.338Z,45.40
2019-04-05T11:51:07.319Z,46.10
2019-04-05T11:52:07.350Z,47.20
2019-04-05T11:53:07.298Z,47.50
2019-04-05T11:54:07.285Z,41.00
2019-04-05T11:55:07.274Z,42.00
2019-04-05T11:56:14.640Z,43.60
2019-04-05T11:57:08.275Z,49.10
2019-04-05T11:58:07.268Z,46.00
2019-04-05T11:59:07.242Z,45.50
2019-04-05T12:00:07.215Z,48.00
2019-04-05T12:01:07.230Z,46.40
2019-04-05T12:02:07.208Z,44.20
2019-04-05T12:03:09.594Z,52.10
2019-04-05T12:04:07.193Z,46.60
2019-04-05T12:05:07.153Z,46.50
2019-04-05T12:06:07.147Z,48.60
2019-04-05T12:07:07.145Z,45.10
2019-04-05T12:08:07.148Z,41.10
2019-04-05T12:09:07.158Z,41.70
2019-04-05T12:10:07.112Z,42.90
2019-04-05T12:11:07.122Z,43.30
2019-04-05T12:12:07.094Z,40.60
2019-04-05T12:13:07.090Z,42.60
2019-04-05T12:14:07.067Z,45.50
2019-04-05T12:15:07.061Z,39.20
2019-04-05T12:16:10.259Z,47.00
2019-04-05T12:17:09.632Z,47.00
2019-04-05T12:18:07.043Z,40.60
2019-04-05T12:19:07.032Z,40.10
2019-04-05T12:20:06.992Z,42.60
2019-04-05T12:21:06.992Z,41.10
2019-04-05T12:22:09.191Z,43.10
2019-04-05T12:23:06.988Z,43.00
2019-04-05T12:24:06.960Z,42.20
2019-04-05T12:25:06.953Z,44.70
2019-04-05T12:26:06.962Z,43.30
2019-04-05T12:27:06.922Z,45.80
2019-04-05T12:28:10.411Z,45.80
2019-04-05T12:29:06.900Z,44.60
2019-04-05T12:30:06.887Z,44.00
2019-04-05T12:31:06.898Z,42.80
2019-04-05T12:32:06.875Z,43.80
2019-04-05T12:33:14.049Z,45.90
2019-04-05T12:34:07.848Z,44.00
2019-04-05T12:35:08.316Z,43.00
2019-04-05T12:36:06.846Z,47.80
2019-04-05T12:37:06.807Z,43.60
2019-04-05T12:38:07.211Z,41.40
2019-04-05T12:39:08.187Z,45.80
2019-04-05T12:40:09.566Z,44.50
2019-04-05T12:41:10.725Z,45.00
2019-04-05T12:42:06.785Z,40.50
2019-04-05T12:43:06.755Z,41.80
2019-04-05T12:44:06.757Z,43.80
2019-04-05T12:45:06.724Z,44.00
2019-04-05T12:46:06.741Z,41.80
2019-04-05T12:47:06.711Z,46.50
2019-04-05T12:48:06.695Z,44.30
2019-04-05T12:49:06.677Z,43.10
2019-04-05T12:50:06.666Z,43.30
2019-04-05T12:51:06.655Z,45.60
2019-04-05T12:52:06.659Z,41.70